createdAt,value
2023-09-06T00:01:26.686Z,98539.03
2023-09-06T00:03:57.239Z,98550.63
2023-09-06T00:06:29.427Z,98541.88
2023-09-06T00:08:58.379Z,98540.28
2023-09-06T00:11:29.284Z,98536.03
2023-09-06T00:13:58.778Z,98537.84
2023-09-06T00:16:28.385Z,98541.78
2023-09-06T00:19:00.817Z,98542.81
2023-09-06T00:21:34.108Z,98543.25
2023-09-06T00:24:05.086Z,98548.31
2023-09-06T00:26:35.556Z,98546.31
2023-09-06T00:29:08.120Z,98541.47
2023-09-06T00:31:38.474Z,98539.50
2023-09-06T00:34:10.048Z,98540.13
2023-09-06T00:36:41.374Z,98537.69
2023-09-06T00:39:12.177Z,98538.31
2023-09-06T00:41:43.777Z,98532.44
2023-09-06T00:44:13.872Z,98534.03
2023-09-06T00:46:43.535Z,98531.59
2023-09-06T00:49:13.904Z,98533.59
2023-09-06T00:51:45.361Z,98530.81
2023-09-06T00:54:16.241Z,98535.66
2023-09-06T00:56:45.929Z,98528.56
2023-09-06T00:59:17.860Z,98528.63
2023-09-06T01:01:48.231Z,98534.72
2023-09-06T01:04:18.355Z,98536.81
2023-09-06T01:06:56.742Z,98534.94
2023-09-06T01:09:26.838Z,98530.50
2023-09-06T01:11:56.755Z,98529.88
2023-09-06T01:14:26.881Z,98531.97
2023-09-06T01:16:57.773Z,98527.94
2023-09-06T01:19:34.988Z,98526.78
2023-09-06T01:22:19.929Z,98533.06
2023-09-06T01:24:53.283Z,98529.78
2023-09-06T01:27:23.502Z,98531.84
2023-09-06T01:29:53.266Z,98539.97
2023-09-06T01:32:23.237Z,98531.84
2023-09-06T01:34:54.295Z,98531.66
2023-09-06T01:37:23.790Z,98535.31
2023-09-06T01:39:55.742Z,98534.06
2023-09-06T01:42:25.786Z,98540.59
2023-09-06T01:44:55.287Z,98529.31
2023-09-06T01:47:25.826Z,98530.72
2023-09-06T01:49:54.711Z,98533.38
2023-09-06T01:52:25.237Z,98532.75
2023-09-06T01:54:58.334Z,98527.09
2023-09-06T01:57:27.334Z,98526.28
2023-09-06T01:59:56.890Z,98528.25
2023-09-06T02:02:26.997Z,98530.72
2023-09-06T02:04:58.256Z,98528.28
2023-09-06T02:07:27.805Z,98523.84
2023-09-06T02:09:59.252Z,98530.34
2023-09-06T02:12:29.964Z,98527.91
2023-09-06T02:14:59.067Z,98526.50
2023-09-06T02:17:28.042Z,98516.13
2023-09-06T02:19:58.087Z,98517.38
2023-09-06T02:22:28.568Z,98523.50
2023-09-06T02:25:01.136Z,98524.06
2023-09-06T02:27:33.523Z,98517.41
2023-09-06T02:30:03.406Z,98516.84
2023-09-06T02:32:33.430Z,98511.38
2023-09-06T02:35:03.131Z,98512.59
2023-09-06T02:37:33.190Z,98508.94
2023-09-06T02:40:08.023Z,98508.94
2023-09-06T02:42:39.949Z,98509.31
2023-09-06T02:45:12.265Z,98504.66
2023-09-06T02:47:50.300Z,98504.47
2023-09-06T02:50:24.825Z,98513.38
2023-09-06T02:52:57.720Z,98510.56
2023-09-06T02:55:28.536Z,98513.59
2023-09-06T02:57:58.761Z,98510.56
2023-09-06T03:00:30.977Z,98516.03
2023-09-06T03:03:07.436Z,98520.31
2023-09-06T03:05:43.430Z,98516.25
2023-09-06T03:08:15.028Z,98510.19
2023-09-06T03:10:46.396Z,98518.50
2023-09-06T03:13:16.820Z,98512.19
2023-09-06T03:15:47.598Z,98514.84
2023-09-06T03:18:21.326Z,98518.28
2023-09-06T03:20:56.874Z,98522.16
2023-09-06T03:23:28.732Z,98517.69
2023-09-06T03:26:00.705Z,98522.75
2023-09-06T03:28:31.686Z,98528.66
2023-09-06T03:31:02.028Z,98529.66
2023-09-06T03:33:33.068Z,98531.47
2023-09-06T03:36:08.799Z,98533.72
2023-09-06T03:38:39.238Z,98532.72
2023-09-06T03:41:11.698Z,98532.09
2023-09-06T03:43:42.471Z,98524.59
2023-09-06T03:46:14.341Z,98537.75
2023-09-06T03:48:47.727Z,98532.50
2023-09-06T03:51:19.148Z,98535.72
2023-09-06T03:53:49.919Z,98535.72
2023-09-06T03:56:21.379Z,98535.94
2023-09-06T03:58:50.931Z,98536.53
2023-09-06T04:01:20.586Z,98536.53
2023-09-06T04:03:51.966Z,98539.97
2023-09-06T04:06:21.698Z,98539.75
2023-09-06T04:08:52.166Z,98539.56
2023-09-06T04:11:24.784Z,98542.41
2023-09-06T04:13:56.999Z,98537.34
2023-09-06T04:16:28.594Z,98541.59
2023-09-06T04:18:58.985Z,98544.22
2023-09-06T04:21:29.596Z,98534.50
2023-09-06T04:24:00.202Z,98542.78
2023-09-06T04:26:31.825Z,98541.38
2023-09-06T04:29:01.448Z,98542.78
2023-09-06T04:31:33.980Z,98538.94
2023-09-06T04:34:06.648Z,98545.59
2023-09-06T04:36:41.181Z,98550.06
2023-09-06T04:39:11.169Z,98557.75
2023-09-06T04:41:45.050Z,98552.66
2023-09-06T04:44:17.363Z,98555.91
2023-09-06T04:46:47.804Z,98555.28
2023-09-06T04:49:18.511Z,98549.44
2023-09-06T04:51:54.529Z,98556.75
2023-09-06T04:54:26.057Z,98555.69
2023-09-06T04:57:07.263Z,98545.97
2023-09-06T04:59:38.666Z,98554.69
2023-09-06T05:02:10.347Z,98550.25
2023-09-06T05:04:40.436Z,98558.31
2023-09-06T05:07:10.938Z,98561.13
2023-09-06T05:09:41.158Z,98559.50
2023-09-06T05:12:12.433Z,98555.88
2023-09-06T05:14:42.662Z,98561.09
2023-09-06T05:17:14.605Z,98564.13
2023-09-06T05:19:43.907Z,98568.97
2023-09-06T05:22:13.113Z,98563.31
2023-09-06T05:24:42.760Z,98565.94
2023-09-06T05:27:19.367Z,98564.13
2023-09-06T05:29:51.437Z,98558.28
2023-09-06T05:32:21.504Z,98561.69
2023-09-06T05:34:53.822Z,98557.03
2023-09-06T05:37:25.735Z,98554.63
2023-09-06T05:39:55.506Z,98565.50
2023-09-06T05:42:26.578Z,98567.34
2023-09-06T05:44:56.155Z,98571.41
2023-09-06T05:47:25.904Z,98571.59
2023-09-06T05:49:59.138Z,98578.91
2023-09-06T05:52:29.803Z,98581.34
2023-09-06T05:55:00.416Z,98583.56
2023-09-06T05:57:31.245Z,98584.16
2023-09-06T06:00:03.350Z,98585.78
2023-09-06T06:02:34.148Z,98587.22
2023-09-06T06:05:04.708Z,98582.19
2023-09-06T06:07:35.795Z,98576.16
2023-09-06T06:10:06.749Z,98581.03
2023-09-06T06:12:40.260Z,98568.06
2023-09-06T06:15:15.399Z,98575.34
2023-09-06T06:17:47.121Z,98572.13
2023-09-06T06:20:27.702Z,98582.69
2023-09-06T06:23:01.116Z,98574.97
2023-09-06T06:25:31.211Z,98580.03
2023-09-06T06:28:03.898Z,98581.84
2023-09-06T06:30:35.447Z,98579.03
2023-09-06T06:33:08.737Z,98585.31
2023-09-06T06:35:41.258Z,98581.47
2023-09-06T06:38:16.063Z,98579.88
2023-09-06T06:40:46.564Z,98581.47
2023-09-06T06:43:18.712Z,98582.69
2023-09-06T06:45:50.299Z,98583.09
2023-09-06T06:48:21.218Z,98587.16
2023-09-06T06:50:51.779Z,98587.38
2023-09-06T06:53:23.337Z,98592.84
2023-09-06T06:55:55.565Z,98583.13
2023-09-06T06:58:28.223Z,98585.16
2023-09-06T07:00:58.280Z,98584.75
2023-09-06T07:03:28.510Z,98580.72
2023-09-06T07:05:59.500Z,98584.56
2023-09-06T07:08:31.363Z,98586.81
2023-09-06T07:11:01.170Z,98579.91
2023-09-06T07:13:32.836Z,98575.66
2023-09-06T07:16:02.549Z,98577.66
2023-09-06T07:18:32.951Z,98576.25
2023-09-06T07:21:03.196Z,98576.66
2023-09-06T07:23:34.293Z,98584.16
2023-09-06T07:26:03.503Z,98584.97
2023-09-06T07:28:41.334Z,98578.28
2023-09-06T07:31:10.505Z,98585.38
2023-09-06T07:33:40.464Z,98580.31
2023-09-06T07:36:12.867Z,98583.53
2023-09-06T07:38:42.487Z,98588.03
2023-09-06T07:41:13.199Z,98585.97
2023-09-06T07:43:45.232Z,98584.72
2023-09-06T07:46:15.519Z,98582.88
2023-09-06T07:48:46.278Z,98582.91
2023-09-06T07:51:15.923Z,98590.09
2023-09-06T07:53:47.088Z,98597.09
2023-09-06T07:56:16.125Z,98595.94
2023-09-06T07:58:47.576Z,98592.00
2023-09-06T08:01:19.515Z,98589.03
2023-09-06T08:03:49.352Z,98593.94
2023-09-06T08:06:18.767Z,98594.38
2023-09-06T08:08:48.470Z,98598.03
2023-09-06T08:11:20.057Z,98597.47
2023-09-06T08:13:51.085Z,98591.16
2023-09-06T08:16:22.132Z,98599.66
2023-09-06T08:18:51.524Z,98597.63
2023-09-06T08:21:22.494Z,98603.50
2023-09-06T08:23:53.144Z,98598.00
2023-09-06T08:26:22.265Z,98599.16
2023-09-06T08:28:54.456Z,98599.56
2023-09-06T08:31:24.065Z,98597.53
2023-09-06T08:33:53.947Z,98602.38
2023-09-06T08:36:24.315Z,98598.72
2023-09-06T08:38:53.868Z,98600.94
2023-09-06T08:41:23.664Z,98598.41
2023-09-06T08:43:56.370Z,98602.25
2023-09-06T08:46:31.938Z,98599.16
2023-09-06T08:49:05.928Z,98604.63
2023-09-06T08:51:37.558Z,98605.81
2023-09-06T08:54:11.004Z,98603.28
2023-09-06T08:56:39.507Z,98600.81
2023-09-06T08:59:11.774Z,98596.69
2023-09-06T09:01:40.948Z,98596.00
2023-09-06T09:04:10.827Z,98590.06
2023-09-06T09:06:44.709Z,98594.47
2023-09-06T09:09:18.471Z,98597.47
2023-09-06T09:11:51.350Z,98597.84
2023-09-06T09:14:23.876Z,98594.09
2023-09-06T09:16:58.075Z,98602.97
2023-09-06T09:19:28.754Z,98596.19
2023-09-06T09:21:58.551Z,98607.53
2023-09-06T09:24:30.653Z,98609.09
2023-09-06T09:27:00.252Z,98602.78
2023-09-06T09:29:31.671Z,98607.22
2023-09-06T09:32:06.038Z,98597.31
2023-09-06T09:34:36.233Z,98601.47
2023-09-06T09:37:07.147Z,98596.66
2023-09-06T09:39:36.858Z,98604.88
2023-09-06T09:42:11.294Z,98597.63
2023-09-06T09:44:42.815Z,98599.50
2023-09-06T09:47:43.246Z,98591.63
2023-09-06T09:50:09.045Z,98585.09
2023-09-06T09:52:40.457Z,98592.41
2023-09-06T09:55:13.173Z,98589.38
2023-09-06T09:57:45.535Z,98589.50
2023-09-06T10:00:28.899Z,98586.59
2023-09-06T10:03:00.962Z,98589.72
2023-09-06T10:05:33.773Z,98589.25
2023-09-06T10:08:07.346Z,98581.38
2023-09-06T10:10:40.954Z,98585.44
2023-09-06T10:13:11.752Z,98585.75
2023-09-06T10:15:44.420Z,98588.38
2023-09-06T10:18:14.357Z,98583.16
2023-09-06T10:20:44.074Z,98586.19
2023-09-06T10:23:13.974Z,98588.94
2023-09-06T10:25:45.317Z,98586.63
2023-09-06T10:28:17.817Z,98583.25
2023-09-06T10:31:03.720Z,98575.13
2023-09-06T10:34:16.753Z,98577.97
2023-09-06T10:36:54.872Z,98576.94
2023-09-06T10:39:27.714Z,98576.66
2023-09-06T10:42:31.749Z,98585.84
2023-09-06T10:45:14.823Z,98577.47
2023-09-06T10:47:46.485Z,98575.41
2023-09-06T10:50:21.289Z,98571.66
2023-09-06T10:52:55.997Z,98568.53
2023-09-06T10:55:29.814Z,98571.50
2023-09-06T10:58:09.450Z,98570.94
2023-09-06T11:00:40.713Z,98564.06
2023-09-06T11:03:23.581Z,98558.34
2023-09-06T11:06:00.233Z,98558.16
2023-09-06T11:08:33.101Z,98560.09
2023-09-06T11:11:27.061Z,98558.81
2023-09-06T11:13:59.264Z,98563.41
2023-09-06T11:16:29.319Z,98550.97
2023-09-06T11:19:00.246Z,98554.91
2023-09-06T11:21:30.303Z,98554.84
2023-09-06T11:24:01.021Z,98550.16
2023-09-06T11:26:37.753Z,98553.13
2023-09-06T11:29:07.377Z,98549.53
2023-09-06T11:31:37.110Z,98539.66
2023-09-06T11:34:12.654Z,98544.53
2023-09-06T11:36:43.950Z,98542.16
2023-09-06T11:39:20.133Z,98546.19
2023-09-06T11:41:50.314Z,98543.84
2023-09-06T11:44:20.717Z,98537.19
2023-09-06T11:46:51.403Z,98531.38
2023-09-06T11:49:25.286Z,98528.19
2023-09-06T11:51:55.476Z,98534.41
2023-09-06T11:54:28.816Z,98526.16
2023-09-06T11:56:59.527Z,98525.09
2023-09-06T11:59:34.081Z,98521.94
2023-09-06T12:02:07.249Z,98519.84
2023-09-06T12:04:39.207Z,98516.66
2023-09-06T12:07:09.861Z,98523.09
2023-09-06T12:09:40.249Z,98517.50
2023-09-06T12:12:09.769Z,98506.66
2023-09-06T12:14:39.225Z,98504.06
2023-09-06T12:17:09.509Z,98497.19
2023-09-06T12:19:40.116Z,98499.63
2023-09-06T12:22:11.559Z,98498.91
2023-09-06T12:24:42.122Z,98498.41
2023-09-06T12:27:12.962Z,98487.22
2023-09-06T12:29:43.170Z,98499.81
2023-09-06T12:32:13.256Z,98491.72
2023-09-06T12:34:44.069Z,98488.56
2023-09-06T12:37:13.396Z,98483.22
2023-09-06T12:39:43.735Z,98488.03
2023-09-06T12:42:13.347Z,98479.28
2023-09-06T12:44:43.524Z,98486.81
2023-09-06T12:47:12.758Z,98480.69
2023-09-06T12:49:43.627Z,98481.25
2023-09-06T12:52:17.266Z,98475.47
2023-09-06T12:54:46.673Z,98475.50
2023-09-06T12:57:18.527Z,98466.97
2023-09-06T12:59:49.199Z,98462.72
2023-09-06T13:02:19.118Z,98462.19
2023-09-06T13:04:51.113Z,98460.63
2023-09-06T13:07:21.272Z,98458.22
2023-09-06T13:09:50.580Z,98460.13
2023-09-06T13:12:19.519Z,98463.63
2023-09-06T13:14:48.471Z,98455.38
2023-09-06T13:17:17.960Z,98455.94
2023-09-06T13:19:46.837Z,98456.47
2023-09-06T13:22:18.230Z,98451.44
2023-09-06T13:24:47.193Z,98454.94
2023-09-06T13:27:17.082Z,98455.47
2023-09-06T13:29:46.618Z,98449.06
2023-09-06T13:32:16.185Z,98439.44
2023-09-06T13:34:47.587Z,98445.84
2023-09-06T13:37:20.206Z,98444.25
2023-09-06T13:39:51.358Z,98440.00
2023-09-06T13:42:21.064Z,98441.88
2023-09-06T13:44:51.611Z,98435.97
2023-09-06T13:47:21.243Z,98435.84
2023-09-06T13:49:52.308Z,98441.22
2023-09-06T13:52:23.604Z,98443.00
2023-09-06T13:54:53.689Z,98437.81
2023-09-06T13:57:25.720Z,98441.03
2023-09-06T13:59:56.738Z,98439.00
2023-09-06T14:02:27.826Z,98434.66
2023-09-06T14:04:58.956Z,98440.53
2023-09-06T14:07:30.754Z,98427.31
2023-09-06T14:10:01.537Z,98432.94
2023-09-06T14:12:32.060Z,98424.38
2023-09-06T14:15:02.636Z,98422.75
2023-09-06T14:17:32.953Z,98425.75
2023-09-06T14:20:01.323Z,98421.94
2023-09-06T14:22:31.759Z,98421.91
2023-09-06T14:25:00.681Z,98420.00
2023-09-06T14:27:29.356Z,98424.59
2023-09-06T14:30:01.355Z,98416.28
2023-09-06T14:32:30.915Z,98416.56
2023-09-06T14:35:01.256Z,98409.25
2023-09-06T14:37:32.722Z,98408.69
2023-09-06T14:40:02.502Z,98414.06
2023-09-06T14:42:34.305Z,98419.16
2023-09-06T14:45:03.851Z,98412.97
2023-09-06T14:47:33.922Z,98422.00
2023-09-06T14:50:04.011Z,98417.91
2023-09-06T14:52:34.472Z,98416.56
2023-09-06T14:55:04.206Z,98412.53
2023-09-06T14:57:33.673Z,98416.56
2023-09-06T15:00:05.431Z,98406.34
2023-09-06T15:02:36.180Z,98408.19
2023-09-06T15:05:05.985Z,98405.22
2023-09-06T15:07:36.077Z,98407.03
2023-09-06T15:10:07.880Z,98409.28
2023-09-06T15:12:37.362Z,98404.34
2023-09-06T15:15:08.853Z,98410.81
2023-09-06T15:17:38.934Z,98398.75
2023-09-06T15:20:12.285Z,98408.13
2023-09-06T15:22:42.888Z,98398.41
2023-09-06T15:25:13.918Z,98396.81
2023-09-06T15:27:43.651Z,98405.19
2023-09-06T15:30:13.001Z,98395.44
2023-09-06T15:32:44.144Z,98394.66
2023-09-06T15:35:15.016Z,98389.25
2023-09-06T15:38:01.578Z,98388.72
2023-09-06T15:40:31.182Z,98388.38
2023-09-06T15:43:01.305Z,98395.47
2023-09-06T15:45:30.908Z,98392.75
2023-09-06T15:48:01.750Z,98388.38
2023-09-06T15:50:31.827Z,98386.47
2023-09-06T15:53:02.150Z,98379.78
2023-09-06T15:55:33.709Z,98388.84
2023-09-06T15:58:05.068Z,98391.91
2023-09-06T16:00:33.606Z,98391.19
2023-09-06T16:03:03.604Z,98380.50
2023-09-06T16:05:32.831Z,98377.09
2023-09-06T16:08:04.572Z,98371.84
2023-09-06T16:10:34.460Z,98377.50
2023-09-06T16:13:04.201Z,98374.91
2023-09-06T16:15:34.022Z,98380.69
2023-09-06T16:18:02.979Z,98382.06
2023-09-06T16:20:33.833Z,98378.81
2023-09-06T16:23:05.700Z,98381.59
2023-09-06T16:25:37.393Z,98378.72
2023-09-06T16:28:07.956Z,98389.81
2023-09-06T16:30:43.232Z,98378.03
2023-09-06T16:33:13.830Z,98386.09
2023-09-06T16:35:43.338Z,98388.06
2023-09-06T16:38:14.217Z,98383.53
2023-09-06T16:40:44.026Z,98389.47
2023-09-06T16:43:13.931Z,98386.84
2023-09-06T16:45:42.696Z,98392.34
2023-09-06T16:48:12.101Z,98386.19
2023-09-06T16:50:43.536Z,98391.38
2023-09-06T16:53:14.521Z,98396.53
2023-09-06T16:55:44.630Z,98390.44
2023-09-06T16:58:14.411Z,98392.91
2023-09-06T17:00:44.234Z,98395.16
2023-09-06T17:03:14.792Z,98396.31
2023-09-06T17:05:43.415Z,98396.66
2023-09-06T17:08:13.960Z,98400.69
2023-09-06T17:10:42.393Z,98400.78
2023-09-06T17:13:12.314Z,98404.31
2023-09-06T17:15:42.976Z,98405.44
2023-09-06T17:18:13.664Z,98407.63
2023-09-06T17:20:43.824Z,98402.31
2023-09-06T17:23:17.309Z,98405.84
2023-09-06T17:25:51.051Z,98398.91
2023-09-06T17:28:21.198Z,98406.72
2023-09-06T17:30:52.891Z,98406.75
2023-09-06T17:33:25.512Z,98406.50
2023-09-06T17:35:55.055Z,98401.97
2023-09-06T17:38:25.992Z,98404.41
2023-09-06T17:40:55.138Z,98398.00
2023-09-06T17:43:26.659Z,98408.94
2023-09-06T17:46:00.041Z,98409.50
2023-09-06T17:48:30.657Z,98412.44
2023-09-06T17:51:08.779Z,98414.00
2023-09-06T17:53:41.764Z,98414.75
2023-09-06T17:56:14.344Z,98421.69
2023-09-06T17:58:45.060Z,98421.69
2023-09-06T18:01:16.173Z,98419.25
2023-09-06T18:03:53.626Z,98425.94
2023-09-06T18:06:26.231Z,98420.56
2023-09-06T18:08:59.037Z,98425.38
2023-09-06T18:11:27.780Z,98431.72
2023-09-06T18:13:56.847Z,98434.38
2023-09-06T18:16:26.579Z,98434.28
2023-09-06T18:18:56.079Z,98430.22
2023-09-06T18:21:27.031Z,98435.53
2023-09-06T18:24:04.385Z,98430.66
2023-09-06T18:26:33.778Z,98437.50
2023-09-06T18:29:03.447Z,98439.59
2023-09-06T18:31:33.506Z,98435.28
2023-09-06T18:34:03.006Z,98440.03
2023-09-06T18:36:33.469Z,98447.13
2023-09-06T18:39:04.193Z,98454.97
2023-09-06T18:41:33.620Z,98441.34
2023-09-06T18:44:02.641Z,98448.00
2023-09-06T18:46:33.648Z,98457.53
2023-09-06T18:49:08.212Z,98452.13
2023-09-06T18:51:38.577Z,98456.88
2023-09-06T18:54:08.902Z,98462.06
2023-09-06T18:56:37.311Z,98467.81
2023-09-06T18:59:08.741Z,98463.81
2023-09-06T19:01:37.926Z,98461.22
2023-09-06T19:04:07.612Z,98469.66
2023-09-06T19:06:37.225Z,98470.66
2023-09-06T19:09:09.586Z,98479.94
2023-09-06T19:11:39.742Z,98479.56
2023-09-06T19:14:10.104Z,98484.25
2023-09-06T19:16:40.227Z,98494.44
2023-09-06T19:19:08.792Z,98492.53
2023-09-06T19:21:37.335Z,98489.47
2023-09-06T19:24:08.414Z,98494.75
2023-09-06T19:26:37.368Z,98491.44
2023-09-06T19:29:07.683Z,98490.19
2023-09-06T19:31:36.700Z,98499.00
2023-09-06T19:34:06.187Z,98504.97
2023-09-06T19:36:36.405Z,98501.97
2023-09-06T19:39:05.989Z,98504.81
2023-09-06T19:41:37.358Z,98505.09
2023-09-06T19:44:08.364Z,98500.84
2023-09-06T19:46:38.028Z,98502.38
2023-09-06T19:49:07.867Z,98499.06
2023-09-06T19:51:40.570Z,98498.56
2023-09-06T19:54:10.458Z,98495.13
2023-09-06T19:56:41.881Z,98496.06
2023-09-06T19:59:10.994Z,98492.81
2023-09-06T20:01:41.098Z,98495.13
2023-09-06T20:04:10.835Z,98488.94
2023-09-06T20:06:40.291Z,98495.81
2023-09-06T20:09:10.779Z,98489.91
2023-09-06T20:11:41.996Z,98486.78
2023-09-06T20:14:13.479Z,98488.53
2023-09-06T20:16:42.737Z,98491.81
2023-09-06T20:19:12.794Z,98489.41
2023-09-06T20:21:43.333Z,98491.50
2023-09-06T20:24:12.413Z,98493.00
2023-09-06T20:26:43.438Z,98485.19
2023-09-06T20:29:13.015Z,98487.38
2023-09-06T20:31:44.289Z,98494.09
2023-09-06T20:34:14.493Z,98493.06
2023-09-06T20:36:45.621Z,98491.78
2023-09-06T20:39:15.173Z,98491.31
2023-09-06T20:41:47.941Z,98492.25
2023-09-06T20:44:17.494Z,98499.16
2023-09-06T20:46:47.196Z,98496.16
2023-09-06T20:49:18.365Z,98501.00
2023-09-06T20:51:49.891Z,98500.78
2023-09-06T20:54:19.338Z,98499.28
2023-09-06T20:56:50.777Z,98493.28
2023-09-06T20:59:20.436Z,98496.41
2023-09-06T21:01:49.954Z,98493.06
2023-09-06T21:04:19.613Z,98499.16
2023-09-06T21:06:50.071Z,98487.53
2023-09-06T21:09:20.715Z,98492.47
2023-09-06T21:11:52.546Z,98490.06
2023-09-06T21:14:21.003Z,98489.13
2023-09-06T21:16:50.871Z,98497.75
2023-09-06T21:19:20.766Z,98499.13
2023-09-06T21:21:49.828Z,98501.88
2023-09-06T21:24:20.002Z,98497.81
2023-09-06T21:26:51.617Z,98496.88
2023-09-06T21:29:27.951Z,98502.66
2023-09-06T21:31:58.293Z,98498.28
2023-09-06T21:34:28.595Z,98508.94
2023-09-06T21:36:57.797Z,98510.22
2023-09-06T21:39:27.739Z,98511.59
2023-09-06T21:41:59.401Z,98501.56
2023-09-06T21:44:29.508Z,98509.84
2023-09-06T21:46:58.511Z,98512.94
2023-09-06T21:49:29.401Z,98513.97
2023-09-06T21:52:00.488Z,98517.88
2023-09-06T21:54:30.029Z,98517.09
2023-09-06T21:57:01.625Z,98518.56
2023-09-06T21:59:31.361Z,98520.03
2023-09-06T22:02:01.507Z,98524.16
2023-09-06T22:04:31.247Z,98521.50
2023-09-06T22:07:01.435Z,98517.13
2023-09-06T22:09:31.461Z,98512.72
2023-09-06T22:12:01.607Z,98514.75
2023-09-06T22:14:31.812Z,98511.56
2023-09-06T22:17:01.838Z,98509.94
2023-09-06T22:19:32.721Z,98510.94
2023-09-06T22:22:03.489Z,98517.78
2023-09-06T22:24:33.184Z,98513.63
2023-09-06T22:27:04.791Z,98517.00
2023-09-06T22:29:33.877Z,98517.44
2023-09-06T22:32:04.034Z,98513.03
2023-09-06T22:34:36.288Z,98515.47
2023-09-06T22:37:06.694Z,98513.84
2023-09-06T22:39:36.348Z,98513.03
2023-09-06T22:42:09.952Z,98514.06
2023-09-06T22:44:39.983Z,98511.78
2023-09-06T22:47:10.794Z,98514.28
2023-09-06T22:49:42.149Z,98511.84
2023-09-06T22:52:12.507Z,98513.94
2023-09-06T22:54:43.365Z,98507.16
2023-09-06T22:57:15.724Z,98507.59
2023-09-06T22:59:45.641Z,98508.03
2023-09-06T23:02:14.670Z,98511.75
2023-09-06T23:04:45.013Z,98513.88
2023-09-06T23:07:14.810Z,98508.94
2023-09-06T23:09:46.116Z,98509.00
2023-09-06T23:12:17.498Z,98506.97
2023-09-06T23:14:49.977Z,98512.72
2023-09-06T23:17:24.968Z,98517.66
2023-09-06T23:19:56.127Z,98513.25
2023-09-06T23:22:26.369Z,98518.41
2023-09-06T23:24:58.720Z,98516.97
2023-09-06T23:27:31.609Z,98512.06
2023-09-06T23:30:09.592Z,98508.41
2023-09-06T23:32:41.035Z,98515.31
2023-09-06T23:35:12.203Z,98517.78
2023-09-06T23:37:42.191Z,98514.72
2023-09-06T23:40:21.642Z,98512.31
2023-09-06T23:42:55.250Z,98508.09
2023-09-06T23:45:25.420Z,98509.41
2023-09-06T23:48:00.693Z,98506.59
2023-09-06T23:50:32.637Z,98505.81
2023-09-06T23:53:02.146Z,98502.75
2023-09-06T23:55:33.410Z,98498.53
2023-09-06T23:58:05.473Z,98499.34
